x

South Brooks (46132) Wave Buoy

4:00 - Tue 3rd Mar 2015 All times are PST. -8 hours from GMT.

  • Sig Wave height 3.3ft
  • Peak Period 12s
  • Wind
    11mph, 13mph gusts
  • Sea Temp 51°f
  • Ar Temp 49°f
  • Sea Pressure 1024.8mb
  • South Brooks
  • South Brooks

More Historic Weather Station data

Upgrade to MSW Pro to gain access to the past 30 days of data for over 8000 Wavebouys and Weather Stations around the globe.

Join Pro

Comparision Forecast

View Surf forecast
   
Ter 03/03 4:00 3.5ft 12s 11 13 mph 1024.8mb 51f 49f
3:00 3.5ft 11s 9 11 mph 1024.6mb 51f 49f
2:00 3.5ft 12s 4 7 mph 1024.5mb 51f 50f
1:00 3.5ft 12s 11 13 mph 1024.7mb 51f 49f
12:00 3.5ft 12s 7 9 mph 1024.7mb 50f 49f
11:00 3.5ft 12s 7 9 mph 1024.7mb 50f 49f
10:00 3.5ft 13s 9
mph
1024.6mb 50f 49f
9:00 4ft 11s 7 11 mph 1024.4mb 50f 49f
8:00 4.5ft 12s 11 13 mph 1024mb 50f 48f
7:00 4.5ft 7s 13 18 mph 1023.7mb 50f 48f
6:00 4.5ft 7s 11 13 mph 1023.6mb 50f 48f
5:00 5ft 7s 16 20 mph 1023.2mb 50f 48f
4:00 5ft 7s 18 22 mph 1022.7mb 50f 49f
3:00 5ft 7s 18 20 mph 1022.7mb 50f 49f
2:00 5ft 8s 11 13 mph 1022.5mb 50f 49f
1:00 5.5ft 8s 16 18 mph 1021.8mb 50f 49f
12:00 5.5ft 7s 18 20 mph 1021.7mb 50f 49f
Seg 03/02 11:00 5.5ft 8s 20 25 mph 1021.3mb 50f 49f
10:00 6ft 8s 25 29 mph 1020.6mb 51f 50f
9:00 6.5ft 6s 22 27 mph 1020.4mb 51f 50f
8:00 6ft 8s 22 27 mph 1020.2mb 51f 50f
7:00 6ft 6s 25 29 mph 1020mb 51f 50f
6:00 6ft 8s 22 27 mph 1019.7mb 51f 50f
5:00 6ft 12s 22 27 mph 1019.4mb 51f 49f
4:00 6ft 9s 20 25 mph 1019.5mb 51f 49f
3:00 6ft 9s 20 25 mph 1019.7mb 51f 49f
2:00 6.5ft 9s 20 22 mph 1019.8mb 51f 49f
12:00  -   -  22
mph
- - -
11:00 7.5ft 9s 22 27 mph 1019.5mb 50f 47f
10:00 7ft 8s 22 27 mph 1019.3mb 50f 47f
9:00 7.5ft 9s 22 27 mph 1019.2mb 50f 47f
8:00 8ft 8s 22 27 mph 1018.9mb 50f 47f
7:00 7.5ft 9s 22 27 mph 1018.7mb 51f 47f
6:00 7ft 8s 20 25 mph 1018.7mb 51f 47f
5:00 7.5ft 8s 20 22 mph 1018.6mb 51f 47f
4:00 7ft 9s 20 25 mph 1018.4mb 50f 47f
3:00 8.5ft 8s 22 27 mph 1018.2mb 50f 47f
2:00 8ft 8s 25 27 mph 1018.3mb 50f 47f
1:00 8ft 8s 27 31 mph 1018.1mb 50f 47f
12:00 7.5ft 7s 29 38 mph 1017.6mb 50f 47f
Dom 03/01 11:00 8ft 8s 31 38 mph 1017.2mb 50f 48f
10:00 7.5ft 8s 34 40 mph 1016.8mb 50f 48f
9:00  -   -  27
mph
1018.1mb - 48f
8:00 6ft 7s 25 29 mph 1018.2mb 51f 49f
7:00 6ft 8s 20 27 mph 1018.9mb 51f 48f
6:00 6.5ft 8s 22 27 mph 1018.9mb 51f 48f
5:00 6ft 8s 20 25 mph 1019.3mb 50f 48f
4:00 5.5ft 8s 20 25 mph 1019.7mb 50f 48f
3:00 5ft 7s 18 22 mph 1020.2mb 50f 47f
2:00 5ft 7s 16 18 mph 1021.1mb 50f 47f
1:00 5ft 8s 13 18 mph 1021.8mb 50f 47f
12:00 5ft 8s 16 18 mph 1022.7mb 50f 47f
11:00 5.5ft 5s 22 25 mph 1023.2mb 51f 47f
10:00 5.5ft 5s 25 29 mph 1023.2mb 51f 48f
9:00 5.5ft 6s 25 29 mph 1023.4mb 51f 48f
8:00 5.5ft 7s 22 29 mph 1023.4mb 50f 48f
7:00 5ft 7s 20 25 mph 1023.5mb 50f 48f
6:00 5ft 7s 20 22 mph 1023.6mb 50f 48f
5:00 5ft 7s 20 22 mph 1023.8mb 50f 48f
4:00 5ft 7s 18 22 mph 1023.7mb 51f 48f
3:00 4.5ft 7s 18 22 mph 1024mb 51f 48f
2:00 5ft 8s 20 22 mph 1024.2mb 51f 48f
1:00 5ft 8s 20 22 mph 1024.3mb 51f 48f
12:00 5.5ft 8s 20 25 mph 1024.3mb 51f 48f
Sáb 02/28 11:00 6ft 8s 20 25 mph 1024.5mb 51f 48f
10:00 6ft 7s 22 27 mph 1024.1mb 51f 48f
9:00 6ft 8s 22 25 mph 1024mb 51f 48f
8:00 6ft 9s 22
mph
1023.5mb 51f 48f
7:00 6ft 9s 22 25 mph 1023.7mb 51f 48f
6:00 6ft 8s 20 25 mph 1023.4mb 51f 49f
5:00 6ft 8s 20 22 mph 1023.1mb 51f 49f
4:00 6ft 8s 20 22 mph 1023.6mb 51f 49f
2:00 6ft 9s 20 25 mph 1023.5mb 51f 49f
1:00 5.5ft 9s 22 25 mph 1023.4mb 51f 49f
12:00 6ft 9s 18 20 mph 1023.6mb 51f 48f
11:00 6ft 8s 18 22 mph 1023.2mb 51f 48f
10:00 6ft 8s 18 22 mph 1022.8mb 50f 48f
9:00 6.5ft 8s 13 18 mph 1022.5mb 50f 48f
8:00 6.5ft 8s 16 18 mph 1022.3mb 50f 48f
7:00 6.5ft 9s 18 20 mph 1022.3mb 50f 48f
6:00 6.5ft 9s 13 16 mph 1022mb 50f 49f
5:00 6ft 8s 13 18 mph 1021.7mb 50f 49f
4:00 7ft 9s 7 11 mph 1021.2mb 50f 51f
3:00 6.5ft 9s 9 11 mph 1020.6mb 51f 51f
2:00 7ft 10s 13 16 mph 1020.3mb 51f 51f